KZ-0076 weather

Blagoveshchenskoye-Chu Airport
Aksu, Jambyl Region, Kazakhstan

Public forecast

Using degrees Celsius for public forecast. Weather courtesy of forecast.io.

Closest aviation weather report (METAR) to Blagoveshchenskoye-Chu Airport

Closest report is Manas International Airport, 22.6 nm (41.9 km) ESE. Retrieved 2020/02/21 09:00 UTC (20 minutes ago):

UCFM 210900Z 27006MPS 7000 NSC 14/06 Q1010 R26/1///95 NOSIG

Closest aviation forecast (TAF) to Blagoveshchenskoye-Chu Airport

Closest forecast is Manas International Airport, 22.6 nm (41.9 km) ESE. Retrieved 2020/02/21 06:00 UTC (3 hours ago):

TAF UCFM 210458Z 2106/2206 32003G08MPS 6000 SCT050CB BKN100 TEMPO 2106/2112 2000 FU BECMG 2112/2114 12003G08MPS TEMPO 2112/2118 1500 FU TEMPO 2118/2124 0800 FZFG SCT005